createdAt,value
2022-07-25T00:01:21.471Z,10.90
2022-07-25T00:03:51.624Z,10.63
2022-07-25T00:06:19.793Z,9.85
2022-07-25T00:08:49.266Z,10.27
2022-07-25T00:11:17.415Z,9.45
2022-07-25T00:13:45.572Z,9.18
2022-07-25T00:16:13.683Z,10.70
2022-07-25T00:18:42.218Z,9.85
2022-07-25T00:21:10.365Z,9.05
2022-07-25T00:23:38.309Z,7.72
2022-07-25T00:26:08.194Z,8.18
2022-07-25T00:28:36.297Z,9.23
2022-07-25T00:31:04.325Z,9.93
2022-07-25T00:33:48.433Z,10.50
2022-07-25T00:36:18.946Z,7.35
2022-07-25T00:38:47.117Z,10.13
2022-07-25T00:41:15.523Z,9.68
2022-07-25T00:43:45.167Z,8.75
2022-07-25T00:46:14.670Z,9.52
2022-07-25T00:48:48.720Z,8.00
2022-07-25T00:51:17.649Z,10.07
2022-07-25T00:53:47.144Z,8.90
2022-07-25T00:56:18.104Z,9.82
2022-07-25T00:58:46.846Z,8.77
2022-07-25T01:01:15.188Z,11.57
2022-07-25T01:03:47.004Z,11.77
2022-07-25T01:06:18.198Z,8.40
2022-07-25T01:08:46.331Z,9.60
2022-07-25T01:11:14.709Z,10.43
2022-07-25T01:13:43.360Z,8.40
2022-07-25T01:16:11.806Z,11.23
2022-07-25T01:18:40.205Z,8.57
2022-07-25T01:21:10.568Z,8.85
2022-07-25T01:23:38.752Z,8.30
2022-07-25T01:26:07.306Z,8.05
2022-07-25T01:28:35.627Z,9.57
2022-07-25T01:31:04.023Z,9.93
2022-07-25T01:33:32.154Z,10.15
2022-07-25T01:36:03.344Z,9.50
2022-07-25T01:38:32.848Z,9.50
2022-07-25T01:41:00.942Z,9.32
2022-07-25T01:43:28.982Z,9.82
2022-07-25T01:45:57.281Z,8.95
2022-07-25T01:48:25.952Z,8.43
2022-07-25T01:50:54.428Z,8.75
2022-07-25T01:53:23.219Z,9.95
2022-07-25T01:55:54.427Z,10.25
2022-07-25T01:58:25.546Z,9.18
2022-07-25T02:00:55.804Z,9.73
2022-07-25T02:03:32.972Z,7.88
2022-07-25T02:06:04.277Z,10.52
2022-07-25T02:08:33.156Z,8.75
2022-07-25T02:11:02.785Z,8.10
2022-07-25T02:13:30.869Z,9.05
2022-07-25T02:15:58.887Z,10.60
2022-07-25T02:18:27.030Z,7.30
2022-07-25T02:20:57.811Z,8.98
2022-07-25T02:23:25.961Z,7.70
2022-07-25T02:25:54.128Z,9.20
2022-07-25T02:28:27.236Z,7.90
2022-07-25T02:30:55.721Z,9.43
2022-07-25T02:33:24.015Z,9.98
2022-07-25T02:35:52.325Z,8.57
2022-07-25T02:38:20.831Z,8.77
2022-07-25T02:40:49.758Z,7.95
2022-07-25T02:43:18.144Z,9.82
2022-07-25T02:45:48.238Z,8.55
2022-07-25T02:48:18.955Z,9.32
2022-07-25T02:50:47.016Z,9.52
2022-07-25T02:53:28.932Z,10.52
2022-07-25T02:56:07.036Z,10.70
2022-07-25T02:58:37.718Z,9.77
2022-07-25T03:01:12.002Z,11.43
2022-07-25T03:03:40.243Z,12.52
2022-07-25T03:06:08.620Z,13.95
2022-07-25T03:08:36.757Z,13.90
2022-07-25T03:11:05.028Z,17.60
2022-07-25T03:13:35.850Z,13.00
2022-07-25T03:16:04.171Z,12.10
2022-07-25T03:18:33.602Z,10.82
2022-07-25T03:21:01.926Z,12.55
2022-07-25T03:23:31.109Z,12.05
2022-07-25T03:25:59.921Z,12.48
2022-07-25T03:28:27.998Z,12.75
2022-07-25T03:30:56.263Z,11.52
2022-07-25T03:33:24.305Z,12.43
2022-07-25T03:35:54.247Z,11.48
2022-07-25T03:38:22.233Z,10.60
2022-07-25T03:40:50.510Z,10.15
2022-07-25T03:43:18.569Z,11.90
2022-07-25T03:45:46.817Z,11.43
2022-07-25T03:48:15.022Z,11.38
2022-07-25T03:50:43.453Z,9.88
2022-07-25T03:53:13.131Z,10.50
2022-07-25T03:55:41.528Z,12.02
2022-07-25T03:58:09.789Z,9.77
2022-07-25T04:00:38.093Z,11.30
2022-07-25T04:03:07.058Z,9.70
2022-07-25T04:05:35.940Z,10.55
2022-07-25T04:08:04.119Z,10.88
2022-07-25T04:10:34.476Z,9.70
2022-07-25T04:13:03.622Z,9.50
2022-07-25T04:15:32.002Z,9.85
2022-07-25T04:18:02.088Z,7.72
2022-07-25T04:20:33.996Z,8.82
2022-07-25T04:23:01.979Z,8.02
2022-07-25T04:25:31.195Z,9.20
2022-07-25T04:28:00.801Z,9.65
2022-07-25T04:30:29.076Z,7.55
2022-07-25T04:33:00.509Z,9.25
2022-07-25T04:35:28.660Z,9.60
2022-07-25T04:37:59.516Z,9.40
2022-07-25T04:40:27.532Z,9.20
2022-07-25T04:42:55.772Z,12.68
2022-07-25T04:45:25.781Z,13.38
2022-07-25T04:47:56.493Z,9.73
2022-07-25T04:50:25.205Z,10.40
2022-07-25T04:52:53.389Z,10.43
2022-07-25T04:55:21.751Z,11.45
2022-07-25T04:57:49.825Z,10.98
2022-07-25T05:00:18.880Z,11.38
2022-07-25T05:02:48.441Z,11.55
2022-07-25T05:05:18.426Z,10.85
2022-07-25T05:07:50.160Z,11.95
2022-07-25T05:10:18.676Z,10.77
2022-07-25T05:12:46.748Z,10.75
2022-07-25T05:15:15.092Z,9.32
2022-07-25T05:17:43.811Z,8.50
2022-07-25T05:20:16.665Z,7.65
2022-07-25T05:22:44.767Z,5.45
2022-07-25T05:25:13.331Z,4.72
2022-07-25T05:27:42.349Z,5.47
2022-07-25T05:30:12.748Z,5.18
2022-07-25T05:32:41.636Z,5.35
2022-07-25T05:35:11.108Z,5.25
2022-07-25T05:37:40.572Z,7.10
2022-07-25T05:40:09.553Z,6.45
2022-07-25T05:42:37.709Z,6.35
2022-07-25T05:45:06.814Z,8.90
2022-07-25T05:47:34.951Z,7.60
2022-07-25T05:50:03.687Z,8.25
2022-07-25T05:52:31.898Z,10.40
2022-07-25T05:55:01.400Z,10.07
2022-07-25T05:57:31.844Z,7.15
2022-07-25T06:00:00.068Z,8.57
2022-07-25T06:02:30.147Z,9.70
2022-07-25T06:04:58.469Z,11.63
2022-07-25T06:07:26.750Z,11.80
2022-07-25T06:09:54.837Z,12.25
2022-07-25T06:12:24.520Z,15.35
2022-07-25T06:14:52.885Z,11.98
2022-07-25T06:17:21.656Z,14.15
2022-07-25T06:19:49.767Z,17.67
2022-07-25T06:22:19.790Z,13.82
2022-07-25T06:24:47.886Z,15.35
2022-07-25T06:27:20.185Z,14.90
2022-07-25T06:29:50.794Z,14.30
2022-07-25T06:32:18.858Z,13.77
2022-07-25T06:34:47.032Z,13.15
2022-07-25T06:37:16.037Z,11.68
2022-07-25T06:39:46.138Z,12.23
2022-07-25T06:42:14.480Z,11.50
2022-07-25T06:44:44.269Z,14.00
2022-07-25T06:47:14.379Z,15.30
2022-07-25T06:49:43.256Z,15.68
2022-07-25T06:52:11.722Z,16.90
2022-07-25T06:54:39.942Z,13.98
2022-07-25T06:57:09.125Z,14.30
2022-07-25T06:59:37.379Z,14.82
2022-07-25T07:02:05.670Z,13.48
2022-07-25T07:04:35.177Z,12.95
2022-07-25T07:07:03.289Z,15.65
2022-07-25T07:09:31.464Z,15.90
2022-07-25T07:11:59.894Z,13.80
2022-07-25T07:14:28.571Z,13.77
2022-07-25T07:16:57.138Z,14.13
2022-07-25T07:19:25.951Z,13.38
2022-07-25T07:21:55.579Z,15.07
2022-07-25T07:24:24.797Z,13.82
2022-07-25T07:26:53.823Z,13.70
2022-07-25T07:29:21.974Z,12.52
2022-07-25T07:31:51.397Z,13.88
2022-07-25T07:34:20.511Z,15.68
2022-07-25T07:36:52.225Z,12.32
2022-07-25T07:39:21.730Z,12.68
2022-07-25T07:41:49.913Z,15.30
2022-07-25T07:44:18.047Z,12.95
2022-07-25T07:46:46.410Z,11.07
2022-07-25T07:49:14.583Z,13.38
2022-07-25T07:51:43.361Z,13.32
2022-07-25T07:54:37.322Z,15.07
2022-07-25T07:57:06.875Z,13.30
2022-07-25T07:59:35.105Z,12.50
2022-07-25T08:02:06.819Z,9.63
2022-07-25T08:04:34.995Z,10.93
2022-07-25T08:07:03.254Z,12.00
2022-07-25T08:09:31.424Z,13.35
2022-07-25T08:11:59.567Z,12.45
2022-07-25T08:14:29.167Z,12.48
2022-07-25T08:16:58.796Z,11.68
2022-07-25T08:19:26.819Z,11.57
2022-07-25T08:21:55.045Z,9.85
2022-07-25T08:24:23.423Z,9.57
2022-07-25T08:26:51.803Z,10.10
2022-07-25T08:29:27.804Z,11.48
2022-07-25T08:31:57.906Z,8.18
2022-07-25T08:34:26.237Z,10.02
2022-07-25T08:36:54.425Z,12.15
2022-07-25T08:39:23.924Z,10.23
2022-07-25T08:41:55.076Z,8.23
2022-07-25T08:44:23.831Z,6.78
2022-07-25T08:46:53.772Z,6.57
2022-07-25T08:49:23.847Z,10.23
2022-07-25T08:51:52.805Z,12.23
2022-07-25T08:54:22.865Z,9.20
2022-07-25T08:56:53.424Z,10.02
2022-07-25T08:59:21.827Z,9.52
2022-07-25T09:01:57.970Z,9.50
2022-07-25T09:04:27.981Z,9.55
2022-07-25T09:06:56.141Z,9.10
2022-07-25T09:09:31.699Z,10.23
2022-07-25T09:12:02.691Z,11.63
2022-07-25T09:14:30.981Z,12.57
2022-07-25T09:16:59.592Z,9.52
2022-07-25T09:19:33.390Z,11.40
2022-07-25T09:22:03.579Z,11.77
2022-07-25T09:24:34.763Z,12.25
2022-07-25T09:27:12.808Z,13.88
2022-07-25T09:29:42.786Z,11.82
2022-07-25T09:32:18.840Z,12.18
2022-07-25T09:34:58.661Z,13.52
2022-07-25T09:37:35.653Z,11.98
2022-07-25T09:40:14.754Z,11.45
2022-07-25T09:42:46.534Z,10.75
2022-07-25T09:45:20.535Z,11.10
2022-07-25T09:47:56.203Z,14.13
2022-07-25T09:50:28.207Z,9.70
2022-07-25T09:53:01.713Z,10.02
2022-07-25T09:55:35.001Z,13.32
2022-07-25T09:58:07.428Z,11.85
2022-07-25T10:00:38.032Z,10.05
2022-07-25T10:03:24.224Z,10.38
2022-07-25T10:06:21.527Z,15.02
2022-07-25T10:08:51.092Z,13.98
2022-07-25T10:11:27.302Z,8.48
2022-07-25T10:13:56.612Z,15.10
2022-07-25T10:16:25.945Z,11.38
2022-07-25T10:18:58.271Z,14.35
2022-07-25T10:21:29.546Z,12.75
2022-07-25T10:24:05.765Z,12.65
2022-07-25T10:26:36.318Z,14.23
2022-07-25T10:29:09.868Z,13.70
2022-07-25T10:31:39.764Z,10.85
2022-07-25T10:34:12.084Z,18.55
2022-07-25T10:36:47.144Z,15.15
2022-07-25T10:39:17.138Z,9.95
2022-07-25T10:41:52.923Z,12.77
2022-07-25T10:44:21.607Z,15.55
2022-07-25T10:46:54.977Z,13.73
2022-07-25T10:49:31.685Z,13.10
2022-07-25T10:52:04.396Z,12.98
2022-07-25T10:54:36.825Z,10.55
2022-07-25T10:57:06.203Z,11.85
2022-07-25T10:59:39.028Z,10.57
2022-07-25T11:02:16.344Z,11.15
2022-07-25T11:04:45.582Z,11.88
2022-07-25T11:07:17.854Z,13.02
2022-07-25T11:09:57.158Z,9.95
2022-07-25T11:12:25.325Z,9.90
2022-07-25T11:15:01.098Z,13.90
2022-07-25T11:17:31.070Z,8.85
2022-07-25T11:20:07.949Z,8.52
2022-07-25T11:22:38.828Z,16.33
2022-07-25T11:25:12.905Z,11.00
2022-07-25T11:27:44.014Z,10.07
2022-07-25T11:30:15.412Z,9.88
2022-07-25T11:32:45.935Z,19.63
2022-07-25T11:35:18.440Z,14.70
2022-07-25T11:37:50.936Z,11.27
2022-07-25T11:40:20.405Z,12.13
2022-07-25T11:42:50.163Z,14.43
2022-07-25T11:45:19.843Z,10.48
2022-07-25T11:47:49.745Z,15.35
2022-07-25T11:50:30.219Z,12.32
2022-07-25T11:53:07.896Z,13.88
2022-07-25T11:55:42.980Z,15.13
2022-07-25T11:58:13.110Z,13.90
2022-07-25T12:00:49.866Z,10.40
2022-07-25T12:03:21.224Z,20.90
2022-07-25T12:05:50.808Z,16.05
2022-07-25T12:08:23.037Z,16.33
2022-07-25T12:10:51.907Z,15.98
2022-07-25T12:13:27.293Z,13.00
2022-07-25T12:15:57.284Z,11.52
2022-07-25T12:18:26.030Z,15.77
2022-07-25T12:20:55.909Z,15.77
2022-07-25T12:23:29.607Z,14.60
2022-07-25T12:25:57.891Z,17.42
2022-07-25T12:28:29.252Z,13.73
2022-07-25T12:30:57.662Z,11.40
2022-07-25T12:33:28.047Z,8.82
2022-07-25T12:35:56.280Z,10.77
2022-07-25T12:38:28.349Z,16.40
2022-07-25T12:40:57.047Z,12.43
2022-07-25T12:43:25.270Z,13.15
2022-07-25T12:45:55.786Z,15.60
2022-07-25T12:48:24.403Z,15.05
2022-07-25T12:50:57.791Z,11.68
2022-07-25T12:53:27.550Z,11.77
2022-07-25T12:55:58.290Z,13.70
2022-07-25T12:58:28.939Z,10.20
2022-07-25T13:01:02.218Z,15.10
2022-07-25T13:03:32.004Z,10.80
2022-07-25T13:06:03.461Z,11.82
2022-07-25T13:08:32.953Z,12.65
2022-07-25T13:11:01.069Z,8.52
2022-07-25T13:13:29.286Z,10.45
2022-07-25T13:15:59.719Z,12.88
2022-07-25T13:18:30.683Z,13.48
2022-07-25T13:21:00.659Z,11.90
2022-07-25T13:23:28.833Z,9.85
2022-07-25T13:26:00.529Z,15.55
2022-07-25T13:28:28.604Z,6.80
2022-07-25T13:30:56.841Z,7.35
2022-07-25T13:33:25.323Z,10.38
2022-07-25T13:35:57.031Z,10.13
2022-07-25T13:38:25.132Z,11.55
2022-07-25T13:40:58.403Z,11.50
2022-07-25T13:43:28.400Z,10.07
2022-07-25T13:45:56.416Z,8.32
2022-07-25T13:48:29.894Z,6.70
2022-07-25T13:50:59.404Z,16.02
2022-07-25T13:53:30.280Z,9.05
2022-07-25T13:55:59.699Z,11.35
2022-07-25T13:58:29.678Z,11.10
2022-07-25T14:00:58.187Z,9.80
2022-07-25T14:03:26.464Z,13.68
2022-07-25T14:05:54.556Z,9.77
2022-07-25T14:08:22.778Z,7.78
2022-07-25T14:10:51.017Z,10.20
2022-07-25T14:13:19.116Z,10.00
2022-07-25T14:15:48.740Z,8.93
2022-07-25T14:18:17.005Z,15.80
2022-07-25T14:20:46.646Z,9.82
2022-07-25T14:23:14.737Z,7.85
2022-07-25T14:25:43.277Z,10.30
2022-07-25T14:28:11.682Z,5.88
2022-07-25T14:30:41.087Z,14.98
2022-07-25T14:33:10.684Z,7.82
2022-07-25T14:35:41.413Z,7.68
2022-07-25T14:38:09.865Z,11.48
2022-07-25T14:40:38.172Z,10.38
2022-07-25T14:43:06.315Z,7.22
2022-07-25T14:45:34.560Z,8.35
2022-07-25T14:48:02.636Z,8.90
2022-07-25T14:50:32.323Z,19.52
2022-07-25T14:53:00.706Z,12.18
2022-07-25T14:55:28.877Z,12.38
2022-07-25T14:57:58.034Z,8.10
2022-07-25T15:00:29.465Z,11.15
2022-07-25T15:02:57.911Z,23.67
2022-07-25T15:05:26.140Z,9.43
2022-07-25T15:07:55.590Z,12.55
2022-07-25T15:10:23.887Z,12.60
2022-07-25T15:13:13.655Z,12.80
2022-07-25T15:15:40.192Z,11.68
2022-07-25T15:18:13.387Z,13.95
2022-07-25T15:20:42.214Z,11.45
2022-07-25T15:23:11.763Z,8.48
2022-07-25T15:28:28.027Z,11.15
2022-07-25T15:30:56.567Z,13.70
2022-07-25T15:33:28.143Z,16.77
2022-07-25T15:35:56.422Z,20.20
2022-07-25T15:38:26.042Z,11.95
2022-07-25T15:40:56.776Z,14.25
2022-07-25T15:43:24.950Z,10.27
2022-07-25T15:45:53.467Z,13.50
2022-07-25T15:48:21.635Z,12.30
2022-07-25T15:50:52.849Z,12.88
2022-07-25T15:53:26.559Z,12.82
2022-07-25T15:55:54.832Z,11.43
2022-07-25T15:58:23.326Z,14.90
2022-07-25T16:00:51.421Z,12.23
2022-07-25T16:03:20.450Z,12.50
2022-07-25T16:05:48.771Z,10.35
2022-07-25T16:08:17.204Z,12.63
2022-07-25T16:10:46.745Z,14.15
2022-07-25T16:13:14.913Z,21.75
2022-07-25T16:15:42.898Z,10.43
2022-07-25T16:18:11.512Z,15.52
2022-07-25T16:20:39.627Z,14.40
2022-07-25T16:23:07.905Z,13.75
2022-07-25T16:25:36.080Z,16.40
2022-07-25T16:28:06.836Z,11.50
2022-07-25T16:30:35.868Z,18.33
2022-07-25T16:33:06.155Z,17.00
2022-07-25T16:35:34.526Z,15.00
2022-07-25T16:38:02.649Z,11.75
2022-07-25T16:40:31.259Z,13.85
2022-07-25T16:43:00.000Z,13.35
2022-07-25T16:45:29.655Z,13.50
2022-07-25T16:47:57.884Z,16.05
2022-07-25T16:50:26.073Z,13.50
2022-07-25T16:52:54.919Z,14.63
2022-07-25T16:55:24.008Z,16.80
2022-07-25T16:57:52.412Z,12.65
2022-07-25T17:00:20.947Z,13.73
2022-07-25T17:02:50.989Z,12.70
2022-07-25T17:05:19.307Z,14.18
2022-07-25T17:07:47.441Z,13.32
2022-07-25T17:10:15.712Z,15.05
2022-07-25T17:12:43.873Z,13.60
2022-07-25T17:15:14.756Z,10.13
2022-07-25T17:17:42.961Z,13.20
2022-07-25T17:20:13.437Z,15.05
2022-07-25T17:22:41.435Z,13.15
2022-07-25T17:25:10.366Z,12.90
2022-07-25T17:27:38.510Z,8.80
2022-07-25T17:30:10.379Z,14.40
2022-07-25T17:32:39.085Z,13.23
2022-07-25T17:35:08.661Z,13.23
2022-07-25T17:37:38.267Z,9.38
2022-07-25T17:40:07.230Z,14.35
2022-07-25T17:42:35.505Z,10.98
2022-07-25T17:45:06.894Z,12.30
2022-07-25T17:47:37.866Z,16.10
2022-07-25T17:50:06.914Z,12.63
2022-07-25T17:52:35.074Z,14.68
2022-07-25T17:55:05.461Z,29.08
2022-07-25T17:57:34.335Z,24.23
2022-07-25T18:00:02.679Z,12.20
2022-07-25T18:02:31.360Z,12.75
2022-07-25T18:05:03.722Z,13.82
2022-07-25T18:07:31.874Z,15.50
2022-07-25T18:10:01.254Z,15.57
2022-07-25T18:12:30.928Z,11.98
2022-07-25T18:14:59.036Z,12.15
2022-07-25T18:17:27.167Z,14.25
2022-07-25T18:19:55.239Z,13.05
2022-07-25T18:22:23.552Z,14.40
2022-07-25T18:24:51.713Z,14.75
2022-07-25T18:27:19.974Z,17.58
2022-07-25T18:29:49.403Z,14.05
2022-07-25T18:32:17.580Z,16.63
2022-07-25T18:34:45.761Z,16.38
2022-07-25T18:37:14.100Z,15.95
2022-07-25T18:39:42.344Z,19.88
2022-07-25T18:42:10.577Z,13.70
2022-07-25T18:44:38.764Z,18.95
2022-07-25T18:47:09.806Z,17.05
2022-07-25T18:49:38.026Z,16.20
2022-07-25T18:52:08.139Z,19.15
2022-07-25T18:54:36.384Z,18.38
2022-07-25T18:57:06.120Z,20.75
2022-07-25T18:59:34.181Z,18.05
2022-07-25T19:02:03.047Z,18.33
2022-07-25T19:04:32.649Z,22.63
2022-07-25T19:07:00.848Z,18.65
2022-07-25T19:09:29.018Z,17.02
2022-07-25T19:11:57.226Z,16.48
2022-07-25T19:14:27.363Z,19.15
2022-07-25T19:16:55.583Z,25.00
2022-07-25T19:19:23.650Z,21.83
2022-07-25T19:21:53.239Z,19.13
2022-07-25T19:24:21.416Z,21.63
2022-07-25T19:26:49.963Z,22.98
2022-07-25T19:29:18.306Z,25.45
2022-07-25T19:31:46.678Z,25.42
2022-07-25T19:34:14.769Z,22.92
2022-07-25T19:36:45.775Z,24.65
2022-07-25T19:39:15.814Z,23.23
2022-07-25T19:41:46.837Z,23.35
2022-07-25T19:44:17.391Z,23.77
2022-07-25T19:46:45.525Z,24.52
2022-07-25T19:49:13.676Z,23.35
2022-07-25T19:51:41.920Z,25.60
2022-07-25T19:54:10.486Z,24.13
2022-07-25T19:56:40.439Z,21.20
2022-07-25T19:59:08.579Z,22.48
2022-07-25T20:01:36.767Z,23.98
2022-07-25T20:04:09.059Z,25.60
2022-07-25T20:06:37.673Z,23.83
2022-07-25T20:09:06.749Z,22.75
2022-07-25T20:11:35.186Z,22.90
2022-07-25T20:14:07.494Z,23.65
2022-07-25T20:16:37.050Z,22.88
2022-07-25T20:19:06.250Z,25.70
2022-07-25T20:21:35.047Z,28.23
2022-07-25T20:24:03.154Z,20.77
2022-07-25T20:26:33.457Z,31.48
2022-07-25T20:29:01.684Z,28.23
2022-07-25T20:31:31.443Z,30.95
2022-07-25T20:33:59.714Z,21.85
2022-07-25T20:36:27.795Z,23.98
2022-07-25T20:38:56.517Z,30.05
2022-07-25T20:41:26.453Z,22.33
2022-07-25T20:43:56.950Z,24.80
2022-07-25T20:46:25.135Z,30.85
2022-07-25T20:48:54.772Z,22.48
2022-07-25T20:51:23.023Z,28.67
2022-07-25T20:53:53.103Z,21.58
2022-07-25T20:56:21.749Z,23.50
2022-07-25T20:58:49.752Z,20.30
2022-07-25T21:01:17.953Z,26.02
2022-07-25T21:03:46.022Z,21.33
2022-07-25T21:06:15.930Z,23.05
2022-07-25T21:08:43.927Z,25.73
2022-07-25T21:11:12.065Z,22.98
2022-07-25T21:13:40.093Z,25.65
2022-07-25T21:16:08.622Z,26.80
2022-07-25T21:18:36.659Z,27.75
2022-07-25T21:21:11.753Z,25.38
2022-07-25T21:23:42.313Z,25.45
2022-07-25T21:26:10.482Z,27.48
2022-07-25T21:28:38.546Z,25.27
2022-07-25T21:31:06.630Z,31.98
2022-07-25T21:33:34.630Z,23.10
2022-07-25T21:36:02.815Z,27.17
2022-07-25T21:38:34.876Z,29.58
2022-07-25T21:41:05.035Z,28.60
2022-07-25T21:43:33.047Z,33.80
2022-07-25T21:46:01.197Z,30.58
2022-07-25T21:48:46.746Z,26.10
2022-07-25T21:51:19.056Z,22.58
2022-07-25T21:53:51.669Z,24.48
2022-07-25T21:56:21.839Z,26.90
2022-07-25T21:58:50.080Z,29.35
2022-07-25T22:01:20.387Z,31.50
2022-07-25T22:03:48.531Z,25.15
2022-07-25T22:06:19.271Z,27.63
2022-07-25T22:08:47.307Z,26.70
2022-07-25T22:11:39.220Z,23.90
2022-07-25T22:14:05.708Z,25.80
2022-07-25T22:16:33.815Z,27.38
2022-07-25T22:19:02.743Z,28.08
2022-07-25T22:21:30.778Z,25.90
2022-07-25T22:23:58.864Z,26.10
2022-07-25T22:26:26.881Z,27.92
2022-07-25T22:28:56.382Z,23.83
2022-07-25T22:31:26.025Z,24.00
2022-07-25T22:33:54.157Z,27.52
2022-07-25T22:36:22.107Z,22.85
2022-07-25T22:38:50.413Z,27.20
2022-07-25T22:41:18.480Z,22.85
2022-07-25T22:43:57.407Z,26.05
2022-07-25T22:46:29.539Z,26.55
2022-07-25T22:48:58.692Z,28.10
2022-07-25T22:51:27.701Z,26.08
2022-07-25T22:53:55.686Z,25.50
2022-07-25T22:56:24.077Z,25.30
2022-07-25T22:58:52.171Z,27.15
2022-07-25T23:01:21.145Z,23.00
2022-07-25T23:03:51.128Z,19.95
2022-07-25T23:06:20.169Z,24.80
2022-07-25T23:08:48.755Z,22.80
2022-07-25T23:11:17.116Z,27.83
2022-07-25T23:13:45.218Z,20.45
2022-07-25T23:16:13.719Z,23.10
2022-07-25T23:18:41.973Z,25.13
2022-07-25T23:21:12.285Z,23.15
2022-07-25T23:23:40.524Z,22.60
2022-07-25T23:26:08.687Z,21.77
2022-07-25T23:28:37.155Z,22.00
2022-07-25T23:31:07.890Z,25.33
2022-07-25T23:33:36.178Z,21.48
2022-07-25T23:36:05.909Z,24.08
2022-07-25T23:38:35.484Z,16.98
2022-07-25T23:41:03.661Z,21.65
2022-07-25T23:43:55.745Z,16.73
2022-07-25T23:46:20.989Z,19.80
2022-07-25T23:48:56.137Z,18.50
2022-07-25T23:51:24.399Z,19.48
2022-07-25T23:53:53.881Z,14.40
2022-07-25T23:56:21.974Z,19.15
2022-07-25T23:58:51.186Z,16.02
